Back to Top

Language: 

My Weather Underground Personal Weather Station Historical Data with Graphs...

Delerius Weather Station Historical Data
Daily Summary for April 3, 2017 Units:  Metric    English   Both
« Previous Day
Next Day »
Daily Weekly Monthly Yearly Custom
  High: Low: Average:
Temperature: 16.6 °C 2.7 °C 10.3 °C
Dew Point: 7.5 °C 1.6 °C 4.8 °C
Humidity: 95 % 46 % 71 %
Wind Speed: 25.7 km/h 0 km/h 9.2 km/h
Wind Gust: 45.1 km/h - -
Wind:- - SSW
Pressure: 1024.9 hPa 1019.2 hPa -
Precipitation: 0 mm    
Historical Graphs
 
 
Tabular Data for April 3, 2017
Time Temperature Dew Point Pressure Wind Wind Speed Wind Gust Humidity Rainfall Rate (Hourly) solar Conditions
00:03 5.9 °C 3.9 °C 1024.9 hPa Calm     87 % 0 mm 0 W/m2
00:08 5.8 °C 3.8 °C 1024.9 hPa Calm     87 % 0 mm 0 W/m2
00:13 5.8 °C 3.8 °C 1024.9 hPa Calm     87 % 0 mm 0 W/m2
00:18 5.7 °C 3.7 °C 1024.9 hPa Calm   1.6 km/h 87 % 0 mm 0 W/m2
00:23 5.6 °C 3.8 °C 1024.9 hPa Calm   1.6 km/h 88 % 0 mm 0 W/m2
00:28 5.6 °C 3.8 °C 1024.9 hPa Calm     88 % 0 mm 0 W/m2
00:33 5.4 °C 3.6 °C 1024.9 hPa Calm     88 % 0 mm 0 W/m2
00:38 5.3 °C 3.5 °C 1024.9 hPa Calm     88 % 0 mm 0 W/m2
00:43 5.2 °C 3.4 °C 1024.9 hPa Calm     88 % 0 mm 0 W/m2
00:49 5.1 °C 3.3 °C 1024.9 hPa Calm     88 % 0 mm 0 W/m2
00:54 4.9 °C 3.1 °C 1024.9 hPa Calm     88 % 0 mm 0 W/m2
00:59 4.8 °C 3.2 °C 1024.9 hPa Calm     89 % 0 mm 0 W/m2
01:04 4.8 °C 3.2 °C 1024.9 hPa Calm     89 % 0 mm 0 W/m2
01:09 4.7 °C 3.1 °C 1024.9 hPa Calm     89 % 0 mm 0 W/m2
01:14 4.6 °C 2.9 °C 1024.9 hPa Calm     89 % 0 mm 0 W/m2
01:19 4.5 °C 2.8 °C 1024.9 hPa Calm     89 % 0 mm 0 W/m2
01:24 4.4 °C 2.9 °C 1024.9 hPa Calm     90 % 0 mm 0 W/m2
01:29 4.3 °C 2.8 °C 1024.9 hPa Calm     90 % 0 mm 0 W/m2
01:34 4.2 °C 2.7 °C 1024.9 hPa Calm     90 % 0 mm 0 W/m2
01:39 4.2 °C 2.7 °C 1024.9 hPa Calm     90 % 0 mm 0 W/m2
01:44 4.1 °C 2.6 °C 1024.6 hPa Calm     90 % 0 mm 0 W/m2
01:49 4 °C 2.5 °C 1024.6 hPa Calm     90 % 0 mm 0 W/m2
01:54 4 °C 2.7 °C 1024.6 hPa Calm     91 % 0 mm 0 W/m2
01:59 3.9 °C 2.6 °C 1024.6 hPa Calm     91 % 0 mm 0 W/m2
02:04 3.9 °C 2.6 °C 1024.6 hPa Calm     91 % 0 mm 0 W/m2
02:09 3.9 °C 2.6 °C 1024.6 hPa Calm     91 % 0 mm 0 W/m2
02:14 3.9 °C 2.6 °C 1024.6 hPa Calm     91 % 0 mm 0 W/m2
02:19 3.9 °C 2.6 °C 1024.6 hPa Calm     91 % 0 mm 0 W/m2
02:24 3.8 °C 2.4 °C 1024.6 hPa Calm     91 % 0 mm 0 W/m2
02:26 3.7 °C 2.4 °C 1024.6 hPa Calm     91 % 0 mm 0 W/m2
02:31 3.6 °C 2.3 °C 1024.6 hPa Calm     91 % 0 mm 0 W/m2
02:36 3.6 °C 2.3 °C 1024.6 hPa Calm     91 % 0 mm 0 W/m2
02:41 3.4 °C 2.1 °C 1024.6 hPa Calm     91 % 0 mm 0 W/m2
02:44 3.4 °C 2.1 °C 1024.6 hPa Calm     91 % 0 mm 0 W/m2
02:49 3.3 °C 1.9 °C 1024.6 hPa Calm     91 % 0 mm 0 W/m2
02:54 3.3 °C 1.9 °C 1024.6 hPa Calm     91 % 0 mm 0 W/m2
02:59 3.2 °C 1.9 °C 1024.6 hPa Calm     91 % 0 mm 0 W/m2
03:04 3.1 °C 1.9 °C 1024.3 hPa Calm     92 % 0 mm 0 W/m2
03:09 3.1 °C 1.9 °C 1024.6 hPa Calm     92 % 0 mm 0 W/m2
03:10 3.1 °C 1.9 °C 1024.6 hPa Calm     92 % 0 mm 0 W/m2
03:15 3 °C 1.8 °C 1024.3 hPa Calm     92 % 0 mm 0 W/m2
03:20 2.9 °C 1.7 °C 1024.3 hPa Calm     92 % 0 mm 0 W/m2
03:25 2.9 °C 1.7 °C 1024.3 hPa Calm     92 % 0 mm 0 W/m2
03:30 2.8 °C 1.6 °C 1024.3 hPa Calm     92 % 0 mm 0 W/m2
03:32 2.8 °C 1.6 °C 1024.3 hPa Calm     92 % 0 mm 0 W/m2
03:37 2.8 °C 1.6 °C 1024.3 hPa Calm     92 % 0 mm 0 W/m2
03:42 2.7 °C 1.7 °C 1024.3 hPa Calm     93 % 0 mm 0 W/m2
03:47 2.7 °C 1.7 °C 1024.3 hPa Calm     93 % 0 mm 0 W/m2
03:52 2.8 °C 1.8 °C 1024.3 hPa Calm     93 % 0 mm 0 W/m2
03:57 2.8 °C 1.8 °C 1024.3 hPa Calm     93 % 0 mm 0 W/m2
04:02 2.8 °C 1.8 °C 1024.3 hPa Calm     93 % 0 mm 0 W/m2
04:07 2.8 °C 1.8 °C 1024.3 hPa Calm     93 % 0 mm 0 W/m2
04:12 2.7 °C 1.7 °C 1024.3 hPa Calm     93 % 0 mm 0 W/m2
04:17 2.7 °C 1.7 °C 1024.3 hPa Calm     93 % 0 mm 0 W/m2
04:22 2.8 °C 1.8 °C 1023.9 hPa Calm     93 % 0 mm 0 W/m2
04:27 2.8 °C 1.8 °C 1023.9 hPa Calm     93 % 0 mm 0 W/m2
04:32 2.8 °C 1.8 °C 1023.9 hPa Calm     93 % 0 mm 0 W/m2
04:37 2.9 °C 2.1 °C 1023.9 hPa Calm     94 % 0 mm 0 W/m2
04:42 3.1 °C 2.2 °C 1023.9 hPa Calm   3.2 km/h 94 % 0 mm 0 W/m2
04:47 3.2 °C 2.3 °C 1023.9 hPa Calm   3.2 km/h 94 % 0 mm 0 W/m2
04:52 3.3 °C 2.4 °C 1023.9 hPa Calm   1.6 km/h 94 % 0 mm 0 W/m2
04:57 3.3 °C 2.4 °C 1023.9 hPa Calm   1.6 km/h 94 % 0 mm 0 W/m2
05:02 3.4 °C 2.5 °C 1023.9 hPa Calm     94 % 0 mm 0 W/m2
05:07 3.4 °C 2.5 °C 1023.9 hPa Calm     94 % 0 mm 0 W/m2
05:12 3.3 °C 2.4 °C 1023.9 hPa Calm     94 % 0 mm 0 W/m2
05:18 3.2 °C 2.2 °C 1023.9 hPa Calm     93 % 0 mm 0 W/m2
05:23 3.1 °C 2.1 °C 1023.9 hPa Calm     93 % 0 mm 0 W/m2
05:28 3.1 °C 2.1 °C 1023.9 hPa Calm     93 % 0 mm 0 W/m2
05:33 3.1 °C 2.1 °C 1023.9 hPa Calm     93 % 0 mm 0 W/m2
05:38 3.1 °C 2.2 °C 1023.9 hPa Calm   3.2 km/h 94 % 0 mm 0 W/m2
05:43 3.1 °C 2.1 °C 1023.9 hPa Calm   3.2 km/h 93 % 0 mm 0 W/m2
05:48 3.1 °C 2.1 °C 1023.9 hPa Calm     93 % 0 mm 0 W/m2
05:53 3.1 °C 2.1 °C 1023.9 hPa Calm   1.6 km/h 93 % 0 mm 0 W/m2
05:58 3.1 °C 2.2 °C 1023.9 hPa Calm   1.6 km/h 94 % 0 mm 0 W/m2
06:03 3.2 °C 2.3 °C 1023.9 hPa Calm   1.6 km/h 94 % 0 mm 0 W/m2
06:08 3.3 °C 2.4 °C 1023.9 hPa Calm   3.2 km/h 94 % 0 mm 0 W/m2
06:13 3.4 °C 2.5 °C 1023.9 hPa Calm   3.2 km/h 94 % 0 mm 0 W/m2
06:18 3.4 °C 2.5 °C 1023.6 hPa Calm     94 % 0 mm 0 W/m2
06:23 3.4 °C 2.5 °C 1023.6 hPa Calm     94 % 0 mm 5 W/m2
06:28 3.4 °C 2.5 °C 1023.6 hPa Calm     94 % 0 mm 7 W/m2
06:33 3.4 °C 2.5 °C 1023.6 hPa Calm     94 % 0 mm 9 W/m2
06:38 3.3 °C 2.4 °C 1023.6 hPa Calm     94 % 0 mm 11 W/m2
06:43 3.4 °C 2.5 °C 1023.6 hPa Calm   1.6 km/h 94 % 0 mm 12 W/m2
06:48 3.5 °C 2.6 °C 1023.6 hPa Calm   1.6 km/h 94 % 0 mm 16 W/m2
06:53 3.6 °C 2.7 °C 1023.6 hPa Calm   1.6 km/h 94 % 0 mm 19 W/m2
06:58 3.7 °C 2.8 °C 1023.6 hPa Calm   1.6 km/h 94 % 0 mm 25 W/m2
07:03 3.8 °C 2.9 °C 1023.6 hPa Calm   1.6 km/h 94 % 0 mm 28 W/m2
07:08 3.9 °C 3 °C 1023.6 hPa Calm     94 % 0 mm 30 W/m2
07:13 4 °C 3.1 °C 1023.6 hPa Calm   1.6 km/h 94 % 0 mm 33 W/m2
07:18 3.9 °C 2.9 °C 1023.9 hPa Calm   6.4 km/h 93 % 0 mm 37 W/m2
07:23 3.9 °C 2.9 °C 1023.9 hPa Calm   6.4 km/h 93 % 0 mm 39 W/m2
07:28 3.9 °C 2.9 °C 1023.6 hPa Calm     93 % 0 mm 42 W/m2
07:29 3.9 °C 2.9 °C 1023.6 hPa Calm     93 % 0 mm 44 W/m2
07:34 4.1 °C 3.1 °C 1023.9 hPa Calm     93 % 0 mm 46 W/m2
07:39 4.2 °C 3.3 °C 1023.6 hPa Calm     94 % 0 mm 51 W/m2
07:45 4.3 °C 3.4 °C 1023.6 hPa Calm     94 % 0 mm 58 W/m2
07:50 4.4 °C 3.5 °C 1023.6 hPa Calm     94 % 0 mm 62 W/m2
07:51 4.5 °C 3.6 °C 1023.6 hPa Calm     94 % 0 mm 63 W/m2
07:56 4.7 °C 3.8 °C 1023.6 hPa Calm     94 % 0 mm 67 W/m2
08:01 4.9 °C 4 °C 1023.6 hPa Calm   3.2 km/h 94 % 0 mm 70 W/m2
08:06 5.2 °C 4.3 °C 1023.6 hPa Calm   3.2 km/h 94 % 0 mm 178 W/m2
08:11 5.6 °C 4.7 °C 1023.6 hPa Calm   3.2 km/h 94 % 0 mm 199 W/m2
08:16 6.1 °C 5.3 °C 1023.6 hPa Calm   3.2 km/h 95 % 0 mm 211 W/m2
08:21 6.7 °C 5.8 °C 1023.6 hPa Calm   3.2 km/h 94 % 0 mm 239 W/m2
08:26 7.3 °C 6.1 °C 1023.6 hPa SSE 1.6 km/h 6.4 km/h 92 % 0 mm 258 W/m2
08:31 7.8 °C 6.3 °C 1023.6 hPa South 3.2 km/h 14.5 km/h 90 % 0 mm 244 W/m2
08:36 8.3 °C 6.1 °C 1023.6 hPa SSW 6.4 km/h 20.9 km/h 86 % 0 mm 264 W/m2
08:41 8.8 °C 6.1 °C 1023.6 hPa SSW 9.7 km/h 20.9 km/h 83 % 0 mm 265 W/m2
08:46 9.2 °C 5.9 °C 1023.6 hPa SSW 11.3 km/h 17.7 km/h 80 % 0 mm 260 W/m2
08:51 9.5 °C 5.8 °C 1023.6 hPa SSW 9.7 km/h 14.5 km/h 78 % 0 mm 279 W/m2
08:56 9.8 °C 5.9 °C 1023.6 hPa SSW 8 km/h 12.9 km/h 77 % 0 mm 285 W/m2
09:01 10.1 °C 6.1 °C 1023.6 hPa SW 6.4 km/h 12.9 km/h 76 % 0 mm 315 W/m2
09:06 10.3 °C 6.1 °C 1023.6 hPa SW 6.4 km/h 12.9 km/h 75 % 0 mm 338 W/m2
09:11 10.6 °C 5.9 °C 1023.6 hPa SW 6.4 km/h 14.5 km/h 73 % 0 mm 385 W/m2
09:16 10.8 °C 5.3 °C 1023.6 hPa SSW 9.7 km/h 19.3 km/h 69 % 0 mm 388 W/m2
09:21 11.1 °C 5.4 °C 1023.6 hPa SSW 11.3 km/h 20.9 km/h 68 % 0 mm 410 W/m2
09:26 11.3 °C 5.6 °C 1023.6 hPa SSW 11.3 km/h 20.9 km/h 68 % 0 mm 417 W/m2
09:31 11.5 °C 5.8 °C 1023.6 hPa SSW 9.7 km/h 19.3 km/h 68 % 0 mm 415 W/m2
09:36 11.6 °C 6.1 °C 1023.6 hPa South 9.7 km/h 19.3 km/h 69 % 0 mm 422 W/m2
09:41 11.7 °C 6.4 °C 1023.6 hPa South 9.7 km/h 17.7 km/h 70 % 0 mm 436 W/m2
09:46 11.9 °C 6.6 °C 1023.6 hPa South 8 km/h 14.5 km/h 70 % 0 mm 455 W/m2
09:51 12.1 °C 6.4 °C 1023.2 hPa South 9.7 km/h 19.3 km/h 68 % 0 mm 462 W/m2
09:56 12.3 °C 6.3 °C 1023.2 hPa South 11.3 km/h 19.3 km/h 67 % 0 mm 446 W/m2
10:01 12.3 °C 6.3 °C 1023.2 hPa SSE 9.7 km/h 16.1 km/h 67 % 0 mm 480 W/m2
10:06 12.4 °C 6.7 °C 1023.2 hPa South 9.7 km/h 17.7 km/h 68 % 0 mm 504 W/m2
10:12 12.7 °C 6.5 °C 1023.2 hPa SSW 14.5 km/h 33.8 km/h 66 % 0 mm 510 W/m2
10:17 12.8 °C 6.4 °C 1023.2 hPa SSW 19.3 km/h 33.8 km/h 65 % 0 mm 510 W/m2
10:22 12.8 °C 6.2 °C 1023.2 hPa SSW 17.7 km/h 32.2 km/h 64 % 0 mm 490 W/m2
10:27 13 °C 6.3 °C 1023.2 hPa SSW 16.1 km/h 32.2 km/h 64 % 0 mm 536 W/m2
10:32 13.1 °C 6.2 °C 1023.2 hPa SSW 16.1 km/h 32.2 km/h 63 % 0 mm 571 W/m2
10:37 13.2 °C 6.3 °C 1023.2 hPa SSW 19.3 km/h 33.8 km/h 63 % 0 mm 538 W/m2
10:42 13.2 °C 5.8 °C 1022.9 hPa South 19.3 km/h 33.8 km/h 61 % 0 mm 573 W/m2
10:47 13.3 °C 5.7 °C 1022.9 hPa South 17.7 km/h 32.2 km/h 60 % 0 mm 585 W/m2
10:52 13.5 °C 6.1 °C 1022.9 hPa SSW 17.7 km/h 29 km/h 61 % 0 mm 591 W/m2
10:57 13.8 °C 6.4 °C 1022.9 hPa SSW 16.1 km/h 30.6 km/h 61 % 0 mm 608 W/m2
11:02 13.9 °C 5.8 °C 1022.9 hPa SSW 17.7 km/h 32.2 km/h 58 % 0 mm 610 W/m2
11:07 13.9 °C 5.8 °C 1022.9 hPa SSW 19.3 km/h 32.2 km/h 58 % 0 mm 624 W/m2
11:12 14 °C 5.8 °C 1022.9 hPa SSW 19.3 km/h 32.2 km/h 58 % 0 mm 647 W/m2
11:17 14.1 °C 5.9 °C 1022.9 hPa SSW 17.7 km/h 30.6 km/h 58 % 0 mm 587 W/m2
11:22 14.2 °C 5.8 °C 1022.9 hPa SW 17.7 km/h 43.5 km/h 57 % 0 mm 628 W/m2
11:27 14.1 °C 5.4 °C 1022.9 hPa SSW 19.3 km/h 43.5 km/h 56 % 0 mm 643 W/m2
11:32 14.2 °C 5.8 °C 1022.6 hPa SSW 19.3 km/h 43.5 km/h 57 % 0 mm 652 W/m2
11:37 14.3 °C 5.9 °C 1022.6 hPa SW 17.7 km/h 25.7 km/h 57 % 0 mm 643 W/m2
11:42 14.4 °C 5.4 °C 1022.6 hPa SW 17.7 km/h 30.6 km/h 55 % 0 mm 638 W/m2
11:47 14.4 °C 5.7 °C 1022.6 hPa SW 17.7 km/h 30.6 km/h 56 % 0 mm 670 W/m2
11:52 14.6 °C 5.4 °C 1022.6 hPa SSW 17.7 km/h 30.6 km/h 54 % 0 mm 636 W/m2
11:57 14.7 °C 5.5 °C 1022.6 hPa SSW 19.3 km/h 32.2 km/h 54 % 0 mm 640 W/m2
12:02 14.8 °C 5.8 °C 1022.2 hPa SSW 17.7 km/h 32.2 km/h 55 % 0 mm 628 W/m2
12:07 14.9 °C 5.4 °C 1022.2 hPa SSW 16.1 km/h 33.8 km/h 53 % 0 mm 566 W/m2
12:12 14.8 °C 5.3 °C 1022.2 hPa SSW 19.3 km/h 35.4 km/h 53 % 0 mm 564 W/m2
12:17 14.9 °C 5.7 °C 1022.2 hPa SW 17.7 km/h 35.4 km/h 54 % 0 mm 605 W/m2
12:22 14.9 °C 5.7 °C 1022.2 hPa SW 17.7 km/h 32.2 km/h 54 % 0 mm 640 W/m2
12:27 14.9 °C 6.2 °C 1022.2 hPa SW 19.3 km/h 30.6 km/h 56 % 0 mm 610 W/m2
12:32 14.9 °C 5.9 °C 1022.2 hPa SW 17.7 km/h 30.6 km/h 55 % 0 mm 605 W/m2
12:37 14.9 °C 6.4 °C 1022.2 hPa SSW 17.7 km/h 30.6 km/h 57 % 0 mm 613 W/m2
12:42 14.9 °C 6.2 °C 1021.9 hPa SSW 17.7 km/h 32.2 km/h 56 % 0 mm 656 W/m2
12:47 14.8 °C 5.8 °C 1021.9 hPa SSW 20.9 km/h 43.5 km/h 55 % 0 mm 626 W/m2
12:52 14.7 °C 6.3 °C 1021.9 hPa SSW 20.9 km/h 43.5 km/h 57 % 0 mm 306 W/m2
12:57 14.6 °C 6.4 °C 1021.9 hPa SW 16.1 km/h 30.6 km/h 58 % 0 mm 316 W/m2
13:02 14.8 °C 6.6 °C 1021.9 hPa SW 16.1 km/h 29 km/h 58 % 0 mm 773 W/m2
13:07 15.2 °C 6.5 °C 1021.9 hPa SW 17.7 km/h 29 km/h 56 % 0 mm 735 W/m2
13:13 15.4 °C 5.6 °C 1021.9 hPa SSW 20.9 km/h 45.1 km/h 52 % 0 mm 721 W/m2
13:18 15.4 °C 5 °C 1021.6 hPa SSW 22.5 km/h 45.1 km/h 50 % 0 mm 735 W/m2
13:23 15.6 °C 4.6 °C 1021.9 hPa SW 24.1 km/h 43.5 km/h 48 % 0 mm 656 W/m2
13:28 15.5 °C 4.5 °C 1021.6 hPa SSW 25.7 km/h 43.5 km/h 48 % 0 mm 677 W/m2
13:33 15.6 °C 4.9 °C 1021.6 hPa SSW 20.9 km/h 38.6 km/h 49 % 0 mm 722 W/m2
13:38 15.8 °C 5.4 °C 1021.6 hPa SSW 16.1 km/h 38.6 km/h 50 % 0 mm 701 W/m2
13:43 15.9 °C 5.5 °C 1021.6 hPa South 16.1 km/h 32.2 km/h 50 % 0 mm 663 W/m2
13:48 15.9 °C 5.2 °C 1021.6 hPa South 19.3 km/h 32.2 km/h 49 % 0 mm 675 W/m2
13:53 15.9 °C 5.2 °C 1021.6 hPa South 19.3 km/h 33.8 km/h 49 % 0 mm 670 W/m2
13:58 15.9 °C 5.2 °C 1021.6 hPa SSW 19.3 km/h 35.4 km/h 49 % 0 mm 682 W/m2
14:03 16 °C 5.3 °C 1021.6 hPa South 17.7 km/h 35.4 km/h 49 % 0 mm 722 W/m2
14:08 16.2 °C 5.4 °C 1021.6 hPa SSW 17.7 km/h 30.6 km/h 49 % 0 mm 659 W/m2
14:13 16.2 °C 4.9 °C 1021.6 hPa SW 19.3 km/h 35.4 km/h 47 % 0 mm 691 W/m2
14:18 16 °C 5 °C 1021.6 hPa SSW 20.9 km/h 37 km/h 48 % 0 mm 708 W/m2
14:23 16 °C 5 °C 1021.2 hPa SW 19.3 km/h 37 km/h 48 % 0 mm 638 W/m2
14:28 16.1 °C 5.1 °C 1021.2 hPa SW 17.7 km/h 35.4 km/h 48 % 0 mm 664 W/m2
14:33 16 °C 5 °C 1021.2 hPa SSW 19.3 km/h 35.4 km/h 48 % 0 mm 691 W/m2
14:38 16.2 °C 5.8 °C 1021.2 hPa SSW 16.1 km/h 29 km/h 50 % 0 mm 647 W/m2
14:43 16.4 °C 5.3 °C 1021.2 hPa South 14.5 km/h 30.6 km/h 48 % 0 mm 617 W/m2
14:48 16.4 °C 5.9 °C 1020.9 hPa SSW 17.7 km/h 32.2 km/h 50 % 0 mm 555 W/m2
14:53 16.5 °C 5.7 °C 1021.2 hPa SSW 17.7 km/h 35.4 km/h 49 % 0 mm 652 W/m2
14:58 16.4 °C 5.7 °C 1020.9 hPa SSW 17.7 km/h 35.4 km/h 49 % 0 mm 605 W/m2
15:03 16.4 °C 5.7 °C 1020.9 hPa SSW 16.1 km/h 32.2 km/h 49 % 0 mm 582 W/m2
15:08 16.4 °C 5.1 °C 1021.2 hPa SW 19.3 km/h 38.6 km/h 47 % 0 mm 559 W/m2
15:13 16.3 °C 5.6 °C 1020.9 hPa SW 20.9 km/h 38.6 km/h 49 % 0 mm 570 W/m2
15:18 16.3 °C 5.6 °C 1020.9 hPa SW 19.3 km/h 35.4 km/h 49 % 0 mm 596 W/m2
15:23 16.5 °C 5.2 °C 1020.9 hPa SW 16.1 km/h 32.2 km/h 47 % 0 mm 550 W/m2
15:28 16.6 °C 5.8 °C 1020.9 hPa SW 16.1 km/h 30.6 km/h 49 % 0 mm 571 W/m2
15:33 16.6 °C 6.1 °C 1020.9 hPa SSW 17.7 km/h 30.6 km/h 50 % 0 mm 580 W/m2
15:38 16.6 °C 6.1 °C 1020.9 hPa SSW 17.7 km/h 30.6 km/h 50 % 0 mm 536 W/m2
15:43 16.6 °C 6.1 °C 1020.5 hPa SW 16.1 km/h 30.6 km/h 50 % 0 mm 478 W/m2
15:48 16.4 °C 5.3 °C 1020.9 hPa SW 19.3 km/h 38.6 km/h 48 % 0 mm 461 W/m2
15:53 16.3 °C 5.6 °C 1020.5 hPa SW 20.9 km/h 38.6 km/h 49 % 0 mm 438 W/m2
15:58 16.3 °C 5.6 °C 1020.5 hPa SW 17.7 km/h 33.8 km/h 49 % 0 mm 390 W/m2
16:03 16.3 °C 5.6 °C 1020.5 hPa SW 17.7 km/h 32.2 km/h 49 % 0 mm 345 W/m2
16:08 16.3 °C 5.3 °C 1020.5 hPa SW 17.7 km/h 33.8 km/h 48 % 0 mm 454 W/m2
16:13 16.3 °C 5.3 °C 1020.5 hPa SW 17.7 km/h 35.4 km/h 48 % 0 mm 441 W/m2
16:18 16.2 °C 4.9 °C 1020.5 hPa SW 19.3 km/h 37 km/h 47 % 0 mm 376 W/m2
16:23 16.1 °C 4.8 °C 1020.2 hPa SW 20.9 km/h 37 km/h 47 % 0 mm 390 W/m2
16:24 16.1 °C 4.8 °C 1020.2 hPa SW 20.9 km/h 37 km/h 47 % 0 mm 390 W/m2
16:29 16.1 °C 4.8 °C 1020.2 hPa SW 19.3 km/h 37 km/h 47 % 0 mm 396 W/m2
16:34 16.1 °C 4.8 °C 1020.2 hPa SW 19.3 km/h 35.4 km/h 47 % 0 mm 434 W/m2
16:39 16.1 °C 5.1 °C 1019.9 hPa SW 19.3 km/h 35.4 km/h 48 % 0 mm 385 W/m2
16:44 16.1 °C 4.8 °C 1020.2 hPa SW 19.3 km/h 33.8 km/h 47 % 0 mm 318 W/m2
16:49 16.1 °C 4.4 °C 1020.2 hPa SW 19.3 km/h 35.4 km/h 46 % 0 mm 294 W/m2
16:54 15.9 °C 4.6 °C 1019.9 hPa SW 17.7 km/h 35.4 km/h 47 % 0 mm 220 W/m2
16:59 15.8 °C 4.8 °C 1019.9 hPa SW 14.5 km/h 32.2 km/h 48 % 0 mm 253 W/m2
17:04 15.8 °C 5.1 °C 1019.9 hPa SW 12.9 km/h 22.5 km/h 49 % 0 mm 294 W/m2
17:09 15.8 °C 4.5 °C 1019.9 hPa SSW 17.7 km/h 35.4 km/h 47 % 0 mm 378 W/m2
17:14 15.9 °C 5.2 °C 1019.9 hPa SSW 17.7 km/h 35.4 km/h 49 % 0 mm 339 W/m2
17:19 15.9 °C 4.6 °C 1019.5 hPa SSW 17.7 km/h 35.4 km/h 47 % 0 mm 276 W/m2
17:24 15.8 °C 4.8 °C 1019.5 hPa SSW 17.7 km/h 35.4 km/h 48 % 0 mm 197 W/m2
17:29 15.7 °C 4.7 °C 1019.5 hPa SSW 17.7 km/h 33.8 km/h 48 % 0 mm 162 W/m2
17:34 15.5 °C 5.1 °C 1019.2 hPa SSW 17.7 km/h 33.8 km/h 50 % 0 mm 128 W/m2
17:39 15.4 °C 5 °C 1019.5 hPa SSW 16.1 km/h 30.6 km/h 50 % 0 mm 200 W/m2
17:44 15.4 °C 5 °C 1019.2 hPa SSW 17.7 km/h 30.6 km/h 50 % 0 mm 239 W/m2
17:49 15.4 °C 5 °C 1019.5 hPa South 14.5 km/h 30.6 km/h 50 % 0 mm 174 W/m2
17:54 15.6 °C 5.5 °C 1019.2 hPa SSW 12.9 km/h 29 km/h 51 % 0 mm 221 W/m2
17:59 15.5 °C 5.4 °C 1019.5 hPa SSW 14.5 km/h 25.7 km/h 51 % 0 mm 241 W/m2
18:04 15.5 °C 5.1 °C 1019.5 hPa SSW 14.5 km/h 25.7 km/h 50 % 0 mm 202 W/m2
18:09 15.4 °C 4.7 °C 1019.5 hPa SW 16.1 km/h 29 km/h 49 % 0 mm 160 W/m2
18:14 15.3 °C 5.2 °C 1019.5 hPa SSW 17.7 km/h 33.8 km/h 51 % 0 mm 181 W/m2
18:19 15.3 °C 5.2 °C 1019.5 hPa SSW 16.1 km/h 33.8 km/h 51 % 0 mm 213 W/m2
18:24 15.2 °C 5.4 °C 1019.5 hPa SSW 14.5 km/h 32.2 km/h 52 % 0 mm 116 W/m2
18:29 15.1 °C 5.3 °C 1019.5 hPa SW 16.1 km/h 30.6 km/h 52 % 0 mm 127 W/m2
18:34 15 °C 5.8 °C 1019.5 hPa SW 16.1 km/h 30.6 km/h 54 % 0 mm 121 W/m2
18:39 14.9 °C 5.9 °C 1019.5 hPa SSW 14.5 km/h 24.1 km/h 55 % 0 mm 100 W/m2
18:44 14.8 °C 5.8 °C 1019.5 hPa SSW 12.9 km/h 29 km/h 55 % 0 mm 81 W/m2
18:49 14.7 °C 6 °C 1019.5 hPa SSW 12.9 km/h 29 km/h 56 % 0 mm 65 W/m2
18:54 14.5 °C 6.1 °C 1019.5 hPa SSW 16.1 km/h 33.8 km/h 57 % 0 mm 47 W/m2
18:59 14.3 °C 6.2 °C 1019.5 hPa SSW 19.3 km/h 33.8 km/h 58 % 0 mm 37 W/m2
19:04 14.3 °C 6.4 °C 1019.5 hPa SSW 17.7 km/h 32.2 km/h 59 % 0 mm 30 W/m2
19:09 14.1 °C 6.4 °C 1019.9 hPa SW 14.5 km/h 25.7 km/h 60 % 0 mm 25 W/m2
19:14 14 °C 6.3 °C 1019.9 hPa SW 14.5 km/h 22.5 km/h 60 % 0 mm 18 W/m2
19:19 13.9 °C 6.3 °C 1019.9 hPa SW 14.5 km/h 25.7 km/h 60 % 0 mm 14 W/m2
19:24 13.8 °C 6.4 °C 1019.9 hPa SW 12.9 km/h 25.7 km/h 61 % 0 mm 12 W/m2
19:29 13.7 °C 6.3 °C 1019.9 hPa SW 11.3 km/h 20.9 km/h 61 % 0 mm 9 W/m2
19:34 13.7 °C 6.3 °C 1019.9 hPa SW 12.9 km/h 22.5 km/h 61 % 0 mm 7 W/m2
19:39 13.6 °C 6.4 °C 1019.9 hPa SSW 14.5 km/h 29 km/h 62 % 0 mm 5 W/m2
19:40 13.6 °C 6.4 °C 1019.9 hPa SSW 14.5 km/h 29 km/h 62 % 0 mm 5 W/m2
19:45 13.4 °C 6.3 °C 1019.9 hPa SSW 14.5 km/h 29 km/h 62 % 0 mm 0 W/m2
19:50 13.4 °C 6.3 °C 1019.9 hPa SW 12.9 km/h 29 km/h 62 % 0 mm 0 W/m2
19:55 13.3 °C 6.4 °C 1019.9 hPa SW 11.3 km/h 17.7 km/h 63 % 0 mm 0 W/m2
20:00 13.2 °C 6.3 °C 1019.9 hPa SW 9.7 km/h 16.1 km/h 63 % 0 mm 0 W/m2
20:05 13.2 °C 6.3 °C 1019.9 hPa SW 8 km/h 16.1 km/h 63 % 0 mm 0 W/m2
20:10 13.1 °C 6.4 °C 1019.9 hPa SSW 9.7 km/h 16.1 km/h 64 % 0 mm 0 W/m2
20:15 13 °C 6.6 °C 1019.9 hPa SSW 8 km/h 16.1 km/h 65 % 0 mm 0 W/m2
20:20 12.9 °C 6.5 °C 1019.9 hPa SW 8 km/h 17.7 km/h 65 % 0 mm 0 W/m2
20:25 12.9 °C 6.5 °C 1019.9 hPa SW 8 km/h 17.7 km/h 65 % 0 mm 0 W/m2
20:30 12.8 °C 6.4 °C 1020.2 hPa SSW 8 km/h 14.5 km/h 65 % 0 mm 0 W/m2
20:35 12.8 °C 6.4 °C 1020.2 hPa SSW 8 km/h 14.5 km/h 65 % 0 mm 0 W/m2
20:40 12.8 °C 6.4 °C 1020.2 hPa SW 8 km/h 14.5 km/h 65 % 0 mm 0 W/m2
20:45 12.7 °C 6.5 °C 1020.2 hPa SW 6.4 km/h 12.9 km/h 66 % 0 mm 0 W/m2
20:50 12.7 °C 6.5 °C 1020.2 hPa SW 6.4 km/h 14.5 km/h 66 % 0 mm 0 W/m2
20:55 12.6 °C 6.4 °C 1020.2 hPa SW 8 km/h 14.5 km/h 66 % 0 mm 0 W/m2
21:00 12.5 °C 6.3 °C 1020.2 hPa SSW 8 km/h 14.5 km/h 66 % 0 mm 0 W/m2
21:05 12.4 °C 6.4 °C 1020.2 hPa SSW 8 km/h 14.5 km/h 67 % 0 mm 0 W/m2
21:10 12.3 °C 6.3 °C 1020.2 hPa SW 8 km/h 17.7 km/h 67 % 0 mm 0 W/m2
21:15 12.3 °C 6.3 °C 1020.2 hPa SW 9.7 km/h 17.7 km/h 67 % 0 mm 0 W/m2
21:20 12.3 °C 6.3 °C 1020.2 hPa SW 6.4 km/h 16.1 km/h 67 % 0 mm 0 W/m2
21:25 12.2 °C 6.4 °C 1020.2 hPa SW 3.2 km/h 9.7 km/h 68 % 0 mm 0 W/m2
21:30 12.2 °C 6.4 °C 1020.2 hPa SW 3.2 km/h 11.3 km/h 68 % 0 mm 0 W/m2
21:35 12.1 °C 6.4 °C 1020.2 hPa SSW 6.4 km/h 16.1 km/h 68 % 0 mm 0 W/m2
21:40 12.1 °C 6.6 °C 1020.2 hPa SSW 9.7 km/h 17.7 km/h 69 % 0 mm 0 W/m2
21:45 12.1 °C 6.6 °C 1020.2 hPa SW 11.3 km/h 20.9 km/h 69 % 0 mm 0 W/m2
21:50 12.1 °C 6.6 °C 1020.2 hPa SW 11.3 km/h 20.9 km/h 69 % 0 mm 0 W/m2
21:55 12 °C 6.5 °C 1019.9 hPa SSW 11.3 km/h 19.3 km/h 69 % 0 mm 0 W/m2
22:00 11.9 °C 6.6 °C 1019.9 hPa SSW 11.3 km/h 19.3 km/h 70 % 0 mm 0 W/m2
22:05 11.9 °C 6.6 °C 1019.9 hPa SSW 11.3 km/h 19.3 km/h 70 % 0 mm 0 W/m2
22:10 11.8 °C 6.7 °C 1019.9 hPa SSW 12.9 km/h 19.3 km/h 71 % 0 mm 0 W/m2
22:16 11.8 °C 6.7 °C 1019.9 hPa SSW 11.3 km/h 19.3 km/h 71 % 0 mm 0 W/m2
22:21 11.8 °C 6.7 °C 1019.9 hPa SSW 11.3 km/h 19.3 km/h 71 % 0 mm 0 W/m2
22:26 11.8 °C 6.9 °C 1020.2 hPa SW 12.9 km/h 22.5 km/h 72 % 0 mm 0 W/m2
22:31 11.8 °C 6.9 °C 1020.2 hPa SW 11.3 km/h 22.5 km/h 72 % 0 mm 0 W/m2
22:36 11.8 °C 6.9 °C 1020.2 hPa SSW 11.3 km/h 19.3 km/h 72 % 0 mm 0 W/m2
22:41 11.7 °C 6.8 °C 1019.9 hPa SSW 11.3 km/h 19.3 km/h 72 % 0 mm 0 W/m2
22:46 11.7 °C 7 °C 1020.2 hPa SW 9.7 km/h 17.7 km/h 73 % 0 mm 0 W/m2
22:51 11.7 °C 7 °C 1020.2 hPa SW 9.7 km/h 16.1 km/h 73 % 0 mm 0 W/m2
22:56 11.6 °C 6.9 °C 1020.2 hPa SSW 9.7 km/h 16.1 km/h 73 % 0 mm 0 W/m2
23:01 11.6 °C 7.1 °C 1020.2 hPa SSW 9.7 km/h 16.1 km/h 74 % 0 mm 0 W/m2
23:06 11.6 °C 7.1 °C 1020.2 hPa SW 9.7 km/h 17.7 km/h 74 % 0 mm 0 W/m2
23:11 11.6 °C 7.1 °C 1020.2 hPa SW 9.7 km/h 17.7 km/h 74 % 0 mm 0 W/m2
23:16 11.6 °C 7.3 °C 1020.2 hPa SW 8 km/h 12.9 km/h 75 % 0 mm 0 W/m2
23:21 11.6 °C 7.3 °C 1020.2 hPa SW 8 km/h 12.9 km/h 75 % 0 mm 0 W/m2
23:26 11.5 °C 7.4 °C 1020.2 hPa SW 8 km/h 12.9 km/h 76 % 0 mm 0 W/m2
23:31 11.4 °C 7.3 °C 1020.2 hPa SSW 8 km/h 12.9 km/h 76 % 0 mm 0 W/m2
23:36 11.4 °C 7.3 °C 1020.2 hPa SW 6.4 km/h 12.9 km/h 76 % 0 mm 0 W/m2
23:41 11.4 °C 7.3 °C 1020.5 hPa SW 4.8 km/h 9.7 km/h 76 % 0 mm 0 W/m2
23:46 11.4 °C 7.3 °C 1020.5 hPa SSW 1.6 km/h 9.7 km/h 76 % 0 mm 0 W/m2
23:51 11.4 °C 7.5 °C 1020.5 hPa West 1.6 km/h 6.4 km/h 77 % 0 mm 0 W/m2
23:56 11.4 °C 7.5 °C 1020.5 hPa West 1.6 km/h 8 km/h 77 % 0 mm 0 W/m2
Delerius-Weather
Compliments of Weather Underground - 2.25 mb

Data updates at regular intervals.